createdAt,value
2022-08-17T00:02:01.488Z,17.83
2022-08-17T00:04:58.463Z,17.30
2022-08-17T00:07:47.196Z,17.15
2022-08-17T00:10:36.872Z,17.67
2022-08-17T00:13:29.683Z,17.73
2022-08-17T00:16:50.371Z,17.48
2022-08-17T00:19:33.057Z,17.00
2022-08-17T00:22:31.864Z,16.83
2022-08-17T00:25:24.683Z,16.58
2022-08-17T00:28:15.163Z,18.13
2022-08-17T00:31:05.190Z,17.25
2022-08-17T00:33:55.607Z,18.08
2022-08-17T00:36:44.146Z,16.88
2022-08-17T00:39:36.668Z,16.83
2022-08-17T00:42:30.342Z,16.58
2022-08-17T00:45:20.528Z,17.50
2022-08-17T00:48:23.824Z,17.40
2022-08-17T00:51:31.917Z,17.13
2022-08-17T00:54:23.295Z,17.80
2022-08-17T00:57:16.603Z,17.13
2022-08-17T01:00:11.053Z,17.63
2022-08-17T01:03:06.443Z,17.88
2022-08-17T01:05:59.865Z,16.08
2022-08-17T01:08:57.612Z,16.67
2022-08-17T01:11:50.394Z,17.13
2022-08-17T01:14:40.361Z,15.82
2022-08-17T01:17:28.980Z,15.57
2022-08-17T01:20:17.694Z,16.98
2022-08-17T01:23:07.636Z,16.73
2022-08-17T01:25:59.735Z,17.33
2022-08-17T01:28:55.525Z,16.95
2022-08-17T01:31:48.372Z,17.25
2022-08-17T01:34:43.486Z,16.38
2022-08-17T01:37:41.840Z,17.23
2022-08-17T01:40:36.363Z,16.33
2022-08-17T01:43:29.430Z,16.23
2022-08-17T01:46:22.478Z,16.85
2022-08-17T01:49:12.889Z,16.77
2022-08-17T01:52:07.932Z,17.27
2022-08-17T01:54:57.457Z,16.17
2022-08-17T01:57:47.691Z,17.52
2022-08-17T02:00:47.265Z,16.90
2022-08-17T02:03:59.338Z,18.13
2022-08-17T02:06:53.225Z,16.98
2022-08-17T02:09:44.088Z,17.00
2022-08-17T02:12:41.165Z,16.38
2022-08-17T02:15:32.098Z,16.77
2022-08-17T02:18:25.847Z,16.98
2022-08-17T02:21:14.872Z,17.25
2022-08-17T02:24:04.605Z,15.27
2022-08-17T02:26:53.275Z,17.05
2022-08-17T02:29:41.937Z,16.08
2022-08-17T02:32:32.397Z,17.10
2022-08-17T02:35:22.765Z,16.88
2022-08-17T02:38:11.559Z,17.00
2022-08-17T02:41:00.593Z,16.40
2022-08-17T02:43:50.190Z,16.85
2022-08-17T02:46:39.060Z,16.08
2022-08-17T02:49:29.043Z,15.88
2022-08-17T02:52:17.720Z,16.55
2022-08-17T02:55:29.123Z,16.33
2022-08-17T02:58:18.871Z,16.52
2022-08-17T03:01:24.547Z,16.42
2022-08-17T03:04:13.547Z,16.02
2022-08-17T03:07:03.608Z,16.85
2022-08-17T03:09:54.063Z,16.15
2022-08-17T03:12:44.646Z,16.67
2022-08-17T03:15:35.616Z,16.35
2022-08-17T03:18:26.364Z,16.15
2022-08-17T03:21:15.153Z,16.92
2022-08-17T03:24:08.970Z,17.63
2022-08-17T03:26:57.846Z,17.17
2022-08-17T03:29:46.402Z,17.73
2022-08-17T03:32:40.130Z,16.83
2022-08-17T03:35:30.999Z,17.20
2022-08-17T03:38:19.968Z,16.88
2022-08-17T03:41:11.461Z,18.15
2022-08-17T03:44:00.232Z,16.85
2022-08-17T03:47:06.380Z,16.40
2022-08-17T03:50:12.552Z,17.05
2022-08-17T03:53:25.077Z,17.15
2022-08-17T03:56:32.410Z,17.73
2022-08-17T03:59:23.892Z,17.33
2022-08-17T04:02:18.910Z,17.33
2022-08-17T04:05:07.984Z,16.35
2022-08-17T04:07:57.772Z,17.25
2022-08-17T04:10:46.424Z,16.65
2022-08-17T04:13:36.323Z,16.80
2022-08-17T04:16:25.274Z,16.35
2022-08-17T04:19:17.534Z,16.85
2022-08-17T04:22:06.171Z,17.15
2022-08-17T04:24:54.881Z,17.25
2022-08-17T04:27:48.884Z,15.75
2022-08-17T04:30:40.451Z,15.40
2022-08-17T04:33:31.057Z,15.93
2022-08-17T04:36:19.635Z,15.30
2022-08-17T04:39:08.490Z,16.98
2022-08-17T04:42:09.396Z,15.43
2022-08-17T04:44:57.988Z,14.40
2022-08-17T04:47:48.237Z,15.00
2022-08-17T04:50:40.983Z,14.55
2022-08-17T04:53:29.702Z,14.93
2022-08-17T04:56:19.216Z,14.40
2022-08-17T04:59:15.499Z,14.70
2022-08-17T05:02:04.156Z,14.35
2022-08-17T05:04:54.238Z,15.10
2022-08-17T05:07:43.861Z,14.80
2022-08-17T05:10:35.692Z,14.07
2022-08-17T05:13:27.118Z,14.70
2022-08-17T05:16:15.675Z,14.43
2022-08-17T05:19:04.986Z,14.68
2022-08-17T05:21:54.974Z,14.52
2022-08-17T05:24:53.997Z,15.38
2022-08-17T05:27:44.477Z,15.13
2022-08-17T05:30:35.366Z,14.07
2022-08-17T05:33:25.711Z,14.20
2022-08-17T05:36:41.730Z,14.65
2022-08-17T05:39:29.584Z,15.13
2022-08-17T05:42:20.142Z,13.52
2022-08-17T05:45:09.999Z,13.88
2022-08-17T05:47:58.702Z,13.60
2022-08-17T05:50:54.588Z,12.95
2022-08-17T05:53:53.868Z,13.70
2022-08-17T05:57:00.633Z,14.68
2022-08-17T05:59:58.098Z,14.35
2022-08-17T06:03:00.050Z,12.60
2022-08-17T06:06:01.411Z,13.18
2022-08-17T06:08:54.573Z,12.98
2022-08-17T06:11:53.332Z,12.40
2022-08-17T06:15:01.312Z,12.25
2022-08-17T06:17:53.865Z,11.35
2022-08-17T06:20:50.114Z,11.77
2022-08-17T06:23:43.837Z,11.07
2022-08-17T06:26:39.685Z,12.00
2022-08-17T06:29:39.943Z,12.40
2022-08-17T06:32:29.579Z,12.38
2022-08-17T06:35:32.030Z,12.05
2022-08-17T06:38:37.711Z,11.70
2022-08-17T06:41:38.098Z,11.63
2022-08-17T06:44:42.243Z,10.07
2022-08-17T06:47:45.573Z,10.15
2022-08-17T06:50:38.598Z,9.90
2022-08-17T06:53:32.855Z,9.70
2022-08-17T06:56:53.071Z,10.23
2022-08-17T06:59:55.270Z,10.30
2022-08-17T07:02:54.363Z,11.45
2022-08-17T07:05:46.560Z,10.90
2022-08-17T07:08:45.764Z,10.75
2022-08-17T07:11:41.105Z,10.30
2022-08-17T07:14:37.725Z,10.43
2022-08-17T07:17:46.756Z,10.75
2022-08-17T07:20:39.061Z,12.38
2022-08-17T07:23:38.747Z,11.13
2022-08-17T07:26:27.700Z,11.23
2022-08-17T07:29:19.822Z,10.35
2022-08-17T07:32:11.008Z,9.73
2022-08-17T07:35:11.862Z,10.15
2022-08-17T07:38:24.691Z,9.77
2022-08-17T07:41:15.359Z,9.15
2022-08-17T07:44:04.224Z,8.85
2022-08-17T07:47:12.629Z,7.78
2022-08-17T07:50:01.605Z,8.07
2022-08-17T07:52:52.519Z,7.65
2022-08-17T07:55:41.985Z,7.55
2022-08-17T07:58:30.547Z,8.30
2022-08-17T08:01:19.412Z,8.80
2022-08-17T08:07:43.503Z,9.55
2022-08-17T08:10:38.609Z,9.88
2022-08-17T08:13:34.191Z,9.10
2022-08-17T08:16:27.275Z,8.43
2022-08-17T08:19:20.892Z,8.73
2022-08-17T08:22:17.185Z,9.00
2022-08-17T08:25:22.378Z,9.27
2022-08-17T08:28:24.426Z,9.30
2022-08-17T08:31:24.482Z,8.68
2022-08-17T08:34:58.998Z,8.80
2022-08-17T08:37:42.146Z,9.13
2022-08-17T08:40:45.765Z,8.80
2022-08-17T08:43:43.553Z,8.85
2022-08-17T08:46:42.654Z,7.95
2022-08-17T08:50:05.702Z,7.93
2022-08-17T08:53:19.027Z,8.32
2022-08-17T08:56:13.398Z,7.97
2022-08-17T08:59:12.747Z,8.07
2022-08-17T09:02:08.347Z,8.50
2022-08-17T09:05:14.438Z,7.82
2022-08-17T09:08:11.604Z,7.82
2022-08-17T09:11:06.608Z,8.23
2022-08-17T09:14:06.849Z,8.13
2022-08-17T09:17:16.415Z,8.30
2022-08-17T09:20:27.206Z,8.10
2022-08-17T09:23:28.237Z,8.00
2022-08-17T09:26:23.224Z,7.57
2022-08-17T09:29:16.805Z,8.40
2022-08-17T09:32:13.705Z,9.07
2022-08-17T09:35:19.681Z,7.47
2022-08-17T09:38:23.737Z,7.55
2022-08-17T09:41:17.764Z,7.78
2022-08-17T09:44:23.619Z,7.35
2022-08-17T09:47:21.425Z,8.32
2022-08-17T09:50:20.353Z,7.63
2022-08-17T09:53:32.079Z,7.97
2022-08-17T09:56:34.034Z,8.00
2022-08-17T09:59:38.725Z,7.43
2022-08-17T10:02:44.351Z,7.95
2022-08-17T10:05:40.849Z,8.10
2022-08-17T10:08:39.529Z,7.75
2022-08-17T10:11:54.844Z,8.63
2022-08-17T10:15:07.793Z,8.57
2022-08-17T10:18:17.544Z,7.75
2022-08-17T10:21:27.150Z,8.00
2022-08-17T10:24:39.191Z,8.40
2022-08-17T10:27:34.917Z,7.75
2022-08-17T10:30:26.825Z,7.60
2022-08-17T10:33:23.592Z,7.75
2022-08-17T10:36:18.862Z,7.75
2022-08-17T10:39:22.199Z,7.60
2022-08-17T10:42:30.141Z,7.53
2022-08-17T10:45:29.683Z,8.80
2022-08-17T10:48:40.860Z,8.52
2022-08-17T10:51:40.094Z,8.38
2022-08-17T10:54:49.902Z,8.95
2022-08-17T10:57:41.966Z,8.57
2022-08-17T11:01:12.762Z,8.48
2022-08-17T11:04:10.214Z,8.82
2022-08-17T11:07:12.825Z,7.75
2022-08-17T11:10:24.102Z,7.95
2022-08-17T11:13:26.767Z,8.13
2022-08-17T11:16:38.293Z,8.38
2022-08-17T11:19:47.318Z,8.63
2022-08-17T11:22:59.999Z,7.93
2022-08-17T11:25:53.115Z,7.47
2022-08-17T11:28:52.638Z,7.90
2022-08-17T11:31:44.583Z,7.43
2022-08-17T11:34:35.484Z,7.80
2022-08-17T11:37:49.795Z,8.40
2022-08-17T11:41:10.539Z,7.72
2022-08-17T11:44:17.074Z,7.75
2022-08-17T11:47:30.976Z,7.05
2022-08-17T11:50:45.284Z,7.22
2022-08-17T11:58:01.674Z,6.47
2022-08-17T12:00:57.702Z,7.38
2022-08-17T12:03:53.934Z,6.80
2022-08-17T12:06:54.659Z,6.68
2022-08-17T12:09:47.150Z,6.82
2022-08-17T12:12:36.573Z,6.90
2022-08-17T12:15:31.127Z,7.05
2022-08-17T12:18:24.733Z,6.30
2022-08-17T12:21:28.920Z,6.95
2022-08-17T12:24:36.594Z,6.55
2022-08-17T12:28:04.188Z,6.82
2022-08-17T12:30:40.666Z,7.25
2022-08-17T12:33:29.228Z,7.18
2022-08-17T12:36:21.743Z,7.30
2022-08-17T12:39:13.944Z,7.47
2022-08-17T12:42:04.964Z,7.45
2022-08-17T12:44:53.450Z,7.13
2022-08-17T12:47:42.529Z,7.88
2022-08-17T12:50:32.357Z,8.15
2022-08-17T12:53:27.317Z,8.65
2022-08-17T12:56:16.189Z,7.60
2022-08-17T12:59:07.308Z,8.07
2022-08-17T13:01:56.941Z,8.00
2022-08-17T13:04:46.322Z,7.60
2022-08-17T13:07:37.162Z,8.30
2022-08-17T13:10:32.737Z,8.27
2022-08-17T13:13:26.256Z,9.00
2022-08-17T13:16:20.400Z,8.52
2022-08-17T13:19:15.038Z,8.15
2022-08-17T13:22:04.263Z,8.63
2022-08-17T13:24:55.888Z,8.57
2022-08-17T13:27:44.793Z,8.15
2022-08-17T13:30:34.322Z,8.43
2022-08-17T13:33:45.002Z,8.77
2022-08-17T13:36:34.060Z,8.88
2022-08-17T13:39:25.582Z,8.25
2022-08-17T13:42:52.338Z,7.70
2022-08-17T13:45:52.416Z,8.73
2022-08-17T13:48:42.467Z,7.95
2022-08-17T13:51:35.387Z,8.57
2022-08-17T13:54:28.417Z,9.10
2022-08-17T13:57:22.991Z,8.32
2022-08-17T14:00:17.881Z,8.52
2022-08-17T14:03:07.535Z,9.20
2022-08-17T14:05:57.871Z,8.95
2022-08-17T14:08:46.510Z,9.38
2022-08-17T14:11:35.157Z,8.30
2022-08-17T14:14:27.680Z,8.23
2022-08-17T14:17:16.282Z,8.55
2022-08-17T14:20:05.922Z,8.70
2022-08-17T14:22:57.230Z,7.95
2022-08-17T14:25:47.008Z,8.10
2022-08-17T14:28:36.420Z,8.55
2022-08-17T14:31:27.681Z,9.10
2022-08-17T14:34:16.672Z,9.57
2022-08-17T14:37:05.211Z,8.77
2022-08-17T14:39:57.016Z,9.32
2022-08-17T14:42:46.432Z,9.48
2022-08-17T14:45:35.331Z,9.30
2022-08-17T14:48:23.957Z,9.52
2022-08-17T14:51:13.017Z,9.20
2022-08-17T14:54:01.586Z,8.90
2022-08-17T14:56:55.047Z,9.05
2022-08-17T15:00:00.226Z,9.25
2022-08-17T15:02:53.960Z,9.13
2022-08-17T15:05:44.212Z,9.25
2022-08-17T15:08:33.127Z,9.27
2022-08-17T15:11:21.752Z,8.88
2022-08-17T15:14:11.879Z,8.68
2022-08-17T15:17:00.489Z,8.73
2022-08-17T15:19:53.698Z,9.05
2022-08-17T15:22:43.748Z,9.13
2022-08-17T15:25:34.265Z,8.50
2022-08-17T15:28:23.146Z,9.30
2022-08-17T15:31:13.071Z,9.43
2022-08-17T15:34:01.657Z,9.57
2022-08-17T15:36:50.277Z,8.73
2022-08-17T15:39:38.841Z,8.88
2022-08-17T15:42:29.389Z,9.65
2022-08-17T15:45:24.965Z,8.35
2022-08-17T15:48:15.309Z,8.98
2022-08-17T15:51:04.032Z,8.65
2022-08-17T15:53:55.353Z,9.30
2022-08-17T15:56:44.032Z,8.73
2022-08-17T15:59:32.678Z,8.98
2022-08-17T16:03:13.942Z,8.25
2022-08-17T16:05:35.556Z,8.73
2022-08-17T16:08:24.312Z,9.07
2022-08-17T16:11:14.157Z,9.18
2022-08-17T16:14:02.697Z,9.32
2022-08-17T16:16:51.302Z,8.73
2022-08-17T16:19:41.266Z,9.57
2022-08-17T16:22:36.759Z,9.77
2022-08-17T16:25:52.062Z,10.10
2022-08-17T16:28:39.445Z,11.02
2022-08-17T16:31:29.062Z,9.77
2022-08-17T16:34:18.938Z,10.77
2022-08-17T16:37:07.479Z,11.13
2022-08-17T16:39:57.664Z,11.10
2022-08-17T16:42:48.479Z,10.63
2022-08-17T16:45:40.376Z,11.20
2022-08-17T16:48:30.322Z,11.30
2022-08-17T16:51:19.958Z,11.30
2022-08-17T16:54:09.316Z,11.00
2022-08-17T16:56:59.541Z,11.15
2022-08-17T16:59:50.352Z,11.98
2022-08-17T17:02:42.526Z,11.73
2022-08-17T17:05:44.747Z,11.73
2022-08-17T17:08:44.395Z,12.52
2022-08-17T17:11:38.160Z,12.63
2022-08-17T17:14:33.095Z,12.30
2022-08-17T17:17:27.741Z,12.27
2022-08-17T17:20:20.272Z,12.52
2022-08-17T17:23:15.687Z,12.18
2022-08-17T17:26:27.399Z,12.45
2022-08-17T17:29:25.822Z,12.45
2022-08-17T17:32:22.835Z,12.35
2022-08-17T17:35:17.092Z,12.98
2022-08-17T17:38:11.396Z,12.30
2022-08-17T17:41:05.951Z,12.55
2022-08-17T17:44:02.907Z,13.18
2022-08-17T17:46:55.596Z,12.68
2022-08-17T17:49:48.594Z,13.07
2022-08-17T17:52:53.443Z,12.07
2022-08-17T17:55:54.545Z,12.13
2022-08-17T17:58:51.207Z,12.20
2022-08-17T18:01:47.927Z,12.90
2022-08-17T18:04:44.795Z,12.82
2022-08-17T18:07:43.658Z,12.95
2022-08-17T18:10:44.982Z,12.95
2022-08-17T18:13:54.280Z,13.18
2022-08-17T18:16:44.251Z,14.45
2022-08-17T18:19:33.986Z,13.55
2022-08-17T18:22:25.048Z,14.10
2022-08-17T18:25:43.667Z,13.52
2022-08-17T18:28:39.113Z,13.85
2022-08-17T18:31:28.176Z,13.13
2022-08-17T18:34:45.945Z,14.70
2022-08-17T18:37:42.860Z,15.63
2022-08-17T18:40:36.233Z,14.18
2022-08-17T18:43:44.036Z,14.40
2022-08-17T18:46:38.609Z,15.27
2022-08-17T18:49:30.091Z,14.65
2022-08-17T18:52:24.426Z,16.25
2022-08-17T18:55:16.486Z,15.15
2022-08-17T18:58:17.243Z,14.65
2022-08-17T19:01:19.534Z,15.55
2022-08-17T19:04:16.588Z,15.52
2022-08-17T19:07:25.947Z,15.05
2022-08-17T19:10:22.441Z,15.82
2022-08-17T19:13:24.075Z,16.20
2022-08-17T19:16:20.070Z,16.52
2022-08-17T19:19:15.996Z,15.52
2022-08-17T19:22:14.690Z,15.55
2022-08-17T19:25:22.240Z,16.02
2022-08-17T19:28:22.419Z,15.65
2022-08-17T19:31:20.570Z,16.25
2022-08-17T19:34:09.648Z,16.00
2022-08-17T19:37:03.675Z,15.40
2022-08-17T19:40:00.213Z,16.38
2022-08-17T19:42:56.526Z,16.88
2022-08-17T19:45:53.616Z,17.05
2022-08-17T19:48:53.373Z,16.08
2022-08-17T19:51:52.039Z,16.38
2022-08-17T19:54:48.112Z,16.38
2022-08-17T19:57:45.146Z,16.02
2022-08-17T20:00:40.813Z,17.23
2022-08-17T20:03:36.330Z,17.70
2022-08-17T20:06:30.066Z,17.42
2022-08-17T20:09:29.737Z,18.10
2022-08-17T20:12:25.483Z,16.80
2022-08-17T20:15:21.470Z,17.30
2022-08-17T20:18:21.629Z,17.15
2022-08-17T20:21:20.017Z,16.73
2022-08-17T20:24:21.437Z,16.83
2022-08-17T20:27:16.552Z,17.25
2022-08-17T20:30:11.198Z,17.00
2022-08-17T20:33:01.224Z,16.95
2022-08-17T20:36:05.284Z,17.30
2022-08-17T20:38:57.102Z,18.63
2022-08-17T20:42:08.602Z,17.95
2022-08-17T20:44:58.960Z,18.00
2022-08-17T20:48:15.989Z,17.92
2022-08-17T20:51:13.092Z,18.38
2022-08-17T20:54:24.354Z,17.52
2022-08-17T20:57:42.648Z,18.65
2022-08-17T21:00:47.768Z,18.80
2022-08-17T21:03:51.893Z,18.05
2022-08-17T21:07:17.660Z,18.63
2022-08-17T21:10:16.380Z,18.40
2022-08-17T21:13:37.642Z,18.58
2022-08-17T21:16:37.780Z,19.42
2022-08-17T21:20:00.166Z,18.55
2022-08-17T21:23:05.323Z,19.58
2022-08-17T21:26:14.599Z,18.08
2022-08-17T21:29:30.210Z,17.63
2022-08-17T21:32:30.675Z,18.23
2022-08-17T21:35:28.616Z,17.73
2022-08-17T21:38:20.998Z,17.95
2022-08-17T21:41:21.090Z,18.77
2022-08-17T21:44:21.614Z,18.55
2022-08-17T21:47:19.323Z,18.65
2022-08-17T21:50:20.357Z,18.08
2022-08-17T21:53:13.258Z,17.95
2022-08-17T21:56:02.202Z,19.35
2022-08-17T21:58:58.414Z,18.40
2022-08-17T22:01:54.113Z,17.83
2022-08-17T22:04:43.764Z,19.50
2022-08-17T22:07:40.849Z,19.30
2022-08-17T22:10:33.024Z,19.48
2022-08-17T22:13:24.197Z,18.83
2022-08-17T22:16:28.811Z,18.95
2022-08-17T22:19:19.370Z,18.98
2022-08-17T22:22:10.944Z,19.80
2022-08-17T22:25:03.371Z,19.38
2022-08-17T22:27:55.671Z,18.23
2022-08-17T22:30:59.348Z,19.35
2022-08-17T22:33:50.193Z,18.73
2022-08-17T22:36:39.898Z,19.52
2022-08-17T22:39:41.823Z,19.30
2022-08-17T22:42:32.068Z,20.15
2022-08-17T22:45:20.982Z,17.55
2022-08-17T22:48:10.235Z,17.38
2022-08-17T22:51:13.570Z,18.00
2022-08-17T22:54:32.035Z,17.92
2022-08-17T22:57:52.844Z,18.35
2022-08-17T23:00:45.534Z,19.00
2022-08-17T23:03:34.149Z,21.77
2022-08-17T23:06:24.289Z,21.30
2022-08-17T23:09:13.041Z,20.40
2022-08-17T23:12:01.816Z,22.52
2022-08-17T23:14:51.576Z,21.40
2022-08-17T23:17:42.121Z,20.65
2022-08-17T23:20:31.114Z,21.67
2022-08-17T23:23:23.612Z,21.38
2022-08-17T23:26:13.003Z,21.58
2022-08-17T23:29:04.387Z,20.92
2022-08-17T23:31:53.503Z,21.20
2022-08-17T23:34:45.069Z,20.83
2022-08-17T23:37:33.805Z,20.48
2022-08-17T23:40:23.019Z,21.02
2022-08-17T23:43:23.894Z,21.50
2022-08-17T23:46:13.789Z,21.00
2022-08-17T23:49:03.343Z,20.42
2022-08-17T23:51:55.289Z,20.00
2022-08-17T23:54:46.692Z,21.02
2022-08-17T23:57:36.007Z,20.48
